createdAt,value
2018-07-31T00:00:56.675Z,60.13
2018-07-31T00:01:56.633Z,60.71
2018-07-31T00:02:56.626Z,60.32
2018-07-31T00:03:56.550Z,60.23
2018-07-31T00:04:56.509Z,60.13
2018-07-31T00:05:56.464Z,60.61
2018-07-31T00:06:56.426Z,60.52
2018-07-31T00:07:56.413Z,60.61
2018-07-31T00:08:56.377Z,60.13
2018-07-31T00:09:56.296Z,60.52
2018-07-31T00:10:56.287Z,60.23
2018-07-31T00:11:56.215Z,60.80
2018-07-31T00:12:56.170Z,60.71
2018-07-31T00:13:56.128Z,61.58
2018-07-31T00:14:56.137Z,60.32
2018-07-31T00:15:56.043Z,60.42
2018-07-31T00:16:56.005Z,60.42
2018-07-31T00:17:55.960Z,60.90
2018-07-31T00:18:55.918Z,60.80
2018-07-31T00:19:55.905Z,60.42
2018-07-31T00:20:55.832Z,60.61
2018-07-31T00:21:55.793Z,60.52
2018-07-31T00:22:55.752Z,60.71
2018-07-31T00:23:55.729Z,60.13
2018-07-31T00:24:55.662Z,59.94
2018-07-31T00:25:55.655Z,60.23
2018-07-31T00:26:55.580Z,60.13
2018-07-31T00:27:55.537Z,60.42
2018-07-31T00:28:55.502Z,60.32
2018-07-31T00:29:55.455Z,60.61
2018-07-31T00:30:55.447Z,60.32
2018-07-31T00:31:55.369Z,60.71
2018-07-31T00:32:55.357Z,60.42
2018-07-31T00:33:55.284Z,60.71
2018-07-31T00:34:55.244Z,60.42
2018-07-31T00:35:55.197Z,60.32
2018-07-31T00:36:55.181Z,60.61
2018-07-31T00:37:55.115Z,60.80
2018-07-31T00:38:55.074Z,60.71
2018-07-31T00:39:55.027Z,60.80
2018-07-31T00:40:55.018Z,60.71
2018-07-31T00:41:54.950Z,61.29
2018-07-31T00:42:54.905Z,61.19
2018-07-31T00:43:54.862Z,61.29
2018-07-31T00:44:54.823Z,61.19
2018-07-31T00:45:54.799Z,61.87
2018-07-31T00:46:54.764Z,61.83
2018-07-31T00:47:54.690Z,61.77
2018-07-31T00:48:54.651Z,61.10
2018-07-31T00:49:54.605Z,61.19
2018-07-31T00:50:54.563Z,61.29
2018-07-31T00:51:54.553Z,61.19
2018-07-31T00:52:54.479Z,60.80
2018-07-31T00:53:54.439Z,60.80
2018-07-31T00:54:54.394Z,60.71
2018-07-31T00:55:54.385Z,60.23
2018-07-31T00:56:54.310Z,60.13
2018-07-31T00:57:54.271Z,60.80
2018-07-31T00:58:54.224Z,60.71
2018-07-31T00:59:54.184Z,60.80
2018-07-31T01:00:54.180Z,60.42
2018-07-31T01:01:54.096Z,60.13
2018-07-31T01:02:54.056Z,60.71
2018-07-31T01:03:54.013Z,60.42
2018-07-31T01:04:53.970Z,60.71
2018-07-31T01:05:53.957Z,60.61
2018-07-31T01:06:53.884Z,60.20
2018-07-31T01:07:53.874Z,60.71
2018-07-31T01:08:53.802Z,60.68
2018-07-31T01:09:53.758Z,60.90
2018-07-31T01:10:53.719Z,60.32
2018-07-31T01:11:53.672Z,60.39
2018-07-31T01:12:53.658Z,60.49
2018-07-31T01:13:53.586Z,60.71
2018-07-31T01:14:53.545Z,59.84
2018-07-31T01:15:53.524Z,60.13
2018-07-31T01:16:53.461Z,60.32
2018-07-31T01:17:53.415Z,60.61
2018-07-31T01:18:53.407Z,60.10
2018-07-31T01:19:53.334Z,60.10
2018-07-31T01:20:53.287Z,60.32
2018-07-31T01:21:53.256Z,60.87
2018-07-31T01:22:53.206Z,60.58
2018-07-31T01:23:53.192Z,60.68
2018-07-31T01:24:53.150Z,61.35
2018-07-31T01:25:53.079Z,60.87
2018-07-31T01:26:53.036Z,60.87
2018-07-31T01:27:52.989Z,60.87
2018-07-31T01:28:52.996Z,60.77
2018-07-31T01:29:52.907Z,60.39
2018-07-31T01:30:52.863Z,60.58
2018-07-31T01:31:52.820Z,60.58
2018-07-31T01:32:52.775Z,60.39
2018-07-31T01:33:52.777Z,60.20
2018-07-31T01:34:52.694Z,60.68
2018-07-31T01:35:52.647Z,60.58
2018-07-31T01:36:52.609Z,60.49
2018-07-31T01:37:52.565Z,60.20
2018-07-31T01:38:52.560Z,60.39
2018-07-31T01:39:52.479Z,60.39
2018-07-31T01:40:52.435Z,60.87
2018-07-31T01:41:52.391Z,60.58
2018-07-31T01:42:52.384Z,60.30
2018-07-31T01:43:52.307Z,60.58
2018-07-31T01:44:52.297Z,60.39
2018-07-31T01:45:52.236Z,59.91
2018-07-31T01:46:52.182Z,59.81
2018-07-31T01:47:52.140Z,59.91
2018-07-31T01:48:52.127Z,59.62
2018-07-31T01:49:52.051Z,59.43
2018-07-31T01:50:52.009Z,59.23
2018-07-31T01:51:51.970Z,59.27
2018-07-31T01:52:51.976Z,58.97
2018-07-31T01:53:51.882Z,59.27
2018-07-31T01:54:51.838Z,58.88
2018-07-31T01:55:51.796Z,58.49
2018-07-31T01:56:51.756Z,58.97
2018-07-31T01:57:51.755Z,57.82
2018-07-31T01:58:51.669Z,57.82
2018-07-31T01:59:51.624Z,57.24
2018-07-31T02:00:51.584Z,56.76
2018-07-31T02:01:51.538Z,56.37
2018-07-31T02:02:51.520Z,57.05
2018-07-31T02:03:51.454Z,56.95
2018-07-31T02:04:51.409Z,57.14
2018-07-31T02:05:51.368Z,57.24
2018-07-31T02:06:51.324Z,57.24
2018-07-31T02:07:51.306Z,56.57
2018-07-31T02:08:51.244Z,56.09
2018-07-31T02:09:51.194Z,56.47
2018-07-31T02:10:51.178Z,57.24
2018-07-31T02:11:51.143Z,56.85
2018-07-31T02:12:51.071Z,56.47
2018-07-31T02:13:51.024Z,56.57
2018-07-31T02:14:50.982Z,56.66
2018-07-31T02:15:50.939Z,56.76
2018-07-31T02:16:50.932Z,57.43
2018-07-31T02:17:50.855Z,57.24
2018-07-31T02:18:50.811Z,57.05
2018-07-31T02:19:50.770Z,57.82
2018-07-31T02:20:50.758Z,57.53
2018-07-31T02:21:50.683Z,57.72
2018-07-31T02:22:50.669Z,57.92
2018-07-31T02:23:50.596Z,57.89
2018-07-31T02:24:50.588Z,57.72
2018-07-31T02:25:50.515Z,57.69
2018-07-31T02:26:50.471Z,57.62
2018-07-31T02:27:50.463Z,57.72
2018-07-31T02:28:50.415Z,57.12
2018-07-31T02:29:50.344Z,57.40
2018-07-31T02:30:50.298Z,57.82
2018-07-31T02:31:50.255Z,57.82
2018-07-31T02:32:50.215Z,57.79
2018-07-31T02:33:50.202Z,57.98
2018-07-31T02:34:50.160Z,57.40
2018-07-31T02:35:50.082Z,58.01
2018-07-31T02:36:50.043Z,57.82
2018-07-31T02:37:50.000Z,57.92
2018-07-31T02:38:49.960Z,57.62
2018-07-31T02:39:49.943Z,57.60
2018-07-31T02:40:49.868Z,57.60
2018-07-31T02:41:49.830Z,57.89
2018-07-31T02:42:49.785Z,57.60
2018-07-31T02:43:49.774Z,57.60
2018-07-31T02:44:49.731Z,57.72
2018-07-31T02:45:49.662Z,57.43
2018-07-31T02:46:49.686Z,57.60
2018-07-31T02:47:49.569Z,57.60
2018-07-31T02:48:49.526Z,57.89
2018-07-31T02:49:49.518Z,57.34
2018-07-31T02:50:49.442Z,57.98
2018-07-31T02:51:49.396Z,57.14
2018-07-31T02:52:49.392Z,57.05
2018-07-31T02:53:49.312Z,56.95
2018-07-31T02:54:49.268Z,57.05
2018-07-31T02:55:49.227Z,56.95
2018-07-31T02:56:49.186Z,56.57
2018-07-31T02:57:49.178Z,56.27
2018-07-31T02:58:49.096Z,56.47
2018-07-31T02:59:49.053Z,56.76
2018-07-31T03:00:49.013Z,57.05
2018-07-31T03:01:48.969Z,57.24
2018-07-31T03:02:48.955Z,57.24
2018-07-31T03:03:48.882Z,57.21
2018-07-31T03:04:48.842Z,57.43
2018-07-31T03:05:48.833Z,57.24
2018-07-31T03:06:48.753Z,57.40
2018-07-31T03:07:48.711Z,56.73
2018-07-31T03:08:48.673Z,56.47
2018-07-31T03:09:48.656Z,56.44
2018-07-31T03:10:48.580Z,57.12
2018-07-31T03:11:48.543Z,57.21
2018-07-31T03:12:48.532Z,57.31
2018-07-31T03:13:48.453Z,57.60
2018-07-31T03:14:48.408Z,57.98
2018-07-31T03:15:48.398Z,58.17
2018-07-31T03:16:48.325Z,58.95
2018-07-31T03:17:48.277Z,58.92
2018-07-31T03:18:48.235Z,58.75
2018-07-31T03:19:48.196Z,58.95
2018-07-31T03:20:48.185Z,58.27
2018-07-31T03:21:48.106Z,58.37
2018-07-31T03:22:48.064Z,57.79
2018-07-31T03:23:48.021Z,58.37
2018-07-31T03:24:48.015Z,57.98
2018-07-31T03:25:47.933Z,57.98
2018-07-31T03:26:47.925Z,57.60
2018-07-31T03:27:47.851Z,57.21
2018-07-31T03:28:47.804Z,57.12
2018-07-31T03:29:47.762Z,56.95
2018-07-31T03:30:47.720Z,56.95
2018-07-31T03:31:47.707Z,57.24
2018-07-31T03:32:47.640Z,57.21
2018-07-31T03:33:47.592Z,56.47
2018-07-31T03:34:47.552Z,57.43
2018-07-31T03:35:47.506Z,57.40
2018-07-31T03:36:47.493Z,56.92
2018-07-31T03:37:47.423Z,57.31
2018-07-31T03:38:47.375Z,56.92
2018-07-31T03:39:47.331Z,57.31
2018-07-31T03:40:47.292Z,57.69
2018-07-31T03:41:47.280Z,57.50
2018-07-31T03:42:47.244Z,57.79
2018-07-31T03:43:47.159Z,58.37
2018-07-31T03:44:47.115Z,58.08
2018-07-31T03:45:47.073Z,58.17
2018-07-31T03:46:47.033Z,58.95
2018-07-31T03:47:47.021Z,58.75
2018-07-31T03:48:46.941Z,59.01
2018-07-31T03:49:46.905Z,58.17
2018-07-31T03:50:46.891Z,58.17
2018-07-31T03:51:46.810Z,58.08
2018-07-31T03:52:46.802Z,58.17
2018-07-31T03:53:46.731Z,58.37
2018-07-31T03:54:46.685Z,58.17
2018-07-31T03:55:46.716Z,58.27
2018-07-31T03:56:46.598Z,57.79
2018-07-31T03:57:46.555Z,57.98
2018-07-31T03:58:46.512Z,57.69
2018-07-31T03:59:46.470Z,57.69
2018-07-31T04:00:46.457Z,57.69
2018-07-31T04:01:46.383Z,57.31
2018-07-31T04:02:46.339Z,57.89
2018-07-31T04:03:46.294Z,57.60
2018-07-31T04:04:46.265Z,57.50
2018-07-31T04:05:46.241Z,57.98
2018-07-31T04:06:46.168Z,57.79
2018-07-31T04:07:46.122Z,57.50
2018-07-31T04:08:46.082Z,57.50
2018-07-31T04:09:46.037Z,57.79
2018-07-31T04:10:46.028Z,57.72
2018-07-31T04:11:45.956Z,58.20
2018-07-31T04:12:45.910Z,58.75
2018-07-31T04:13:45.863Z,59.04
2018-07-31T04:14:45.852Z,59.04
2018-07-31T04:15:45.836Z,59.07
2018-07-31T04:16:45.784Z,58.97
2018-07-31T04:17:45.694Z,58.30
2018-07-31T04:18:45.646Z,58.49
2018-07-31T04:19:45.602Z,58.59
2018-07-31T04:20:45.594Z,58.49
2018-07-31T04:21:45.519Z,58.01
2018-07-31T04:22:45.478Z,58.30
2018-07-31T04:23:45.431Z,58.69
2018-07-31T04:24:45.422Z,58.88
2018-07-31T04:25:45.346Z,59.81
2018-07-31T04:26:45.341Z,59.84
2018-07-31T04:27:45.262Z,59.81
2018-07-31T04:28:45.221Z,60.20
2018-07-31T04:29:45.209Z,60.39
2018-07-31T04:30:45.133Z,60.68
2018-07-31T04:31:45.091Z,61.07
2018-07-31T04:32:45.045Z,61.35
2018-07-31T04:33:45.003Z,61.16
2018-07-31T04:34:44.996Z,61.25
2018-07-31T04:35:44.936Z,61.65
2018-07-31T04:36:44.877Z,61.16
2018-07-31T04:37:44.830Z,61.10
2018-07-31T04:38:44.830Z,60.58
2018-07-31T04:39:44.749Z,60.87
2018-07-31T04:40:44.701Z,61.16
2018-07-31T04:41:44.663Z,61.35
2018-07-31T04:42:44.623Z,61.19
2018-07-31T04:43:44.646Z,61.74
2018-07-31T04:44:44.548Z,61.25
2018-07-31T04:45:44.488Z,61.65
2018-07-31T04:46:44.493Z,61.74
2018-07-31T04:47:44.404Z,61.25
2018-07-31T04:48:44.365Z,61.16
2018-07-31T04:49:44.318Z,61.25
2018-07-31T04:50:44.279Z,61.74
2018-07-31T04:51:44.275Z,61.19
2018-07-31T04:52:44.190Z,61.74
2018-07-31T04:53:44.145Z,61.68
2018-07-31T04:54:44.105Z,61.58
2018-07-31T04:55:44.063Z,61.48
2018-07-31T04:56:44.093Z,61.65
2018-07-31T04:57:43.974Z,61.48
2018-07-31T04:58:43.936Z,62.06
2018-07-31T04:59:43.894Z,61.58
2018-07-31T05:00:43.847Z,61.48
2018-07-31T05:01:43.838Z,61.10
2018-07-31T05:02:43.795Z,60.23
2018-07-31T05:03:43.717Z,61.19
2018-07-31T05:04:43.680Z,61.19
2018-07-31T05:05:43.634Z,60.80
2018-07-31T05:06:43.623Z,60.64
2018-07-31T05:07:43.545Z,60.71
2018-07-31T05:08:43.505Z,60.16
2018-07-31T05:09:43.466Z,60.06
2018-07-31T05:10:43.454Z,60.64
2018-07-31T05:11:43.418Z,60.55
2018-07-31T05:12:43.337Z,58.91
2018-07-31T05:13:43.295Z,59.00
2018-07-31T05:14:43.249Z,58.81
2018-07-31T05:15:43.207Z,58.84
2018-07-31T05:16:43.200Z,59.32
2018-07-31T05:17:43.125Z,58.07
2018-07-31T05:18:43.081Z,58.36
2018-07-31T05:19:43.037Z,57.68
2018-07-31T05:20:43.028Z,58.07
2018-07-31T05:21:42.952Z,58.94
2018-07-31T05:22:42.911Z,58.00
2018-07-31T05:23:42.866Z,59.16
2018-07-31T05:24:42.824Z,58.97
2018-07-31T05:25:42.817Z,58.97
2018-07-31T05:26:42.739Z,59.25
2018-07-31T05:27:42.694Z,57.23
2018-07-31T05:28:42.656Z,59.06
2018-07-31T05:29:42.612Z,58.00
2018-07-31T05:30:42.609Z,58.58
2018-07-31T05:31:42.529Z,57.62
2018-07-31T05:32:42.575Z,57.90
2018-07-31T05:33:42.443Z,57.90
2018-07-31T05:34:42.402Z,57.90
2018-07-31T05:35:42.389Z,58.58
2018-07-31T05:36:42.315Z,59.09
2018-07-31T05:37:42.307Z,59.09
2018-07-31T05:38:42.232Z,59.77
2018-07-31T05:39:42.190Z,59.58
2018-07-31T05:40:42.153Z,59.96
2018-07-31T05:41:42.138Z,60.06
2018-07-31T05:42:42.072Z,60.83
2018-07-31T05:43:42.021Z,59.96
2018-07-31T05:44:41.981Z,60.16
2018-07-31T05:45:41.936Z,59.77
2018-07-31T05:46:41.927Z,60.73
2018-07-31T05:47:41.892Z,60.73
2018-07-31T05:48:41.811Z,60.35
2018-07-31T05:49:41.769Z,60.73
2018-07-31T05:50:41.731Z,61.22
2018-07-31T05:51:41.684Z,60.73
2018-07-31T05:52:41.674Z,60.73
2018-07-31T05:53:41.600Z,60.35
2018-07-31T05:54:41.562Z,60.06
2018-07-31T05:55:41.520Z,60.73
2018-07-31T05:56:41.474Z,59.89
2018-07-31T05:57:41.466Z,59.41
2018-07-31T05:58:41.391Z,59.60
2018-07-31T05:59:41.355Z,59.70
2018-07-31T06:00:41.306Z,59.70
2018-07-31T06:01:41.267Z,59.05
2018-07-31T06:02:41.257Z,58.18
2018-07-31T06:03:41.183Z,59.05
2018-07-31T06:04:41.140Z,59.25
2018-07-31T06:05:41.096Z,56.54
2018-07-31T06:06:41.056Z,57.15
2018-07-31T06:07:41.056Z,58.21
2018-07-31T06:08:40.973Z,58.40
2018-07-31T06:09:40.965Z,58.02
2018-07-31T06:10:40.888Z,58.12
2018-07-31T06:11:40.850Z,58.60
2018-07-31T06:12:40.842Z,58.21
2018-07-31T06:13:40.780Z,57.34
2018-07-31T06:14:40.723Z,57.56
2018-07-31T06:15:40.715Z,57.56
2018-07-31T06:16:40.641Z,59.01
2018-07-31T06:17:40.633Z,55.43
2018-07-31T06:18:40.557Z,59.05
2018-07-31T06:19:40.517Z,60.11
2018-07-31T06:20:40.475Z,60.50
2018-07-31T06:21:40.435Z,60.01
2018-07-31T06:22:40.423Z,59.14
2018-07-31T06:23:40.350Z,59.14
2018-07-31T06:24:40.309Z,58.07
2018-07-31T06:25:40.309Z,58.56
2018-07-31T06:26:40.271Z,57.79
2018-07-31T06:27:40.216Z,57.88
2018-07-31T06:28:40.147Z,55.49
2018-07-31T06:29:40.103Z,56.46
2018-07-31T06:30:40.065Z,56.16
2018-07-31T06:31:40.021Z,56.16
2018-07-31T06:32:40.011Z,55.49
2018-07-31T06:33:39.939Z,53.09
2018-07-31T06:34:39.931Z,54.26
2018-07-31T06:35:39.860Z,53.58
2018-07-31T06:36:39.817Z,53.39
2018-07-31T06:37:39.776Z,52.64
2018-07-31T06:38:39.768Z,50.99
2018-07-31T06:39:39.694Z,49.66
2018-07-31T06:40:39.656Z,49.05
2018-07-31T06:41:39.614Z,49.56
2018-07-31T06:42:39.575Z,49.46
2018-07-31T06:43:39.569Z,48.78
2018-07-31T06:44:39.493Z,47.93
2018-07-31T06:45:39.580Z,48.42
2018-07-31T06:46:39.412Z,48.71
2018-07-31T06:47:39.369Z,48.52
2018-07-31T06:48:39.333Z,48.35
2018-07-31T06:49:39.287Z,48.25
2018-07-31T06:50:39.281Z,47.86
2018-07-31T06:51:39.208Z,47.08
2018-07-31T06:52:39.167Z,47.18
2018-07-31T06:53:39.127Z,45.84
2018-07-31T06:54:39.120Z,44.19
2018-07-31T06:55:39.050Z,44.09
2018-07-31T06:56:39.056Z,43.61
2018-07-31T06:57:38.969Z,44.02
2018-07-31T06:58:38.929Z,42.46
2018-07-31T06:59:38.889Z,41.88
2018-07-31T07:00:38.845Z,41.49
2018-07-31T07:01:38.837Z,41.30
2018-07-31T07:02:38.802Z,41.49
2018-07-31T07:03:38.726Z,41.32
2018-07-31T07:04:38.684Z,41.13
2018-07-31T07:05:38.649Z,40.54
2018-07-31T07:06:38.608Z,40.64
2018-07-31T07:07:38.604Z,40.73
2018-07-31T07:08:38.527Z,40.73
2018-07-31T07:09:38.521Z,40.44
2018-07-31T07:10:38.451Z,40.47
2018-07-31T07:11:38.409Z,40.47
2018-07-31T07:12:38.376Z,40.37
2018-07-31T07:13:38.336Z,40.47
2018-07-31T07:14:38.324Z,39.49
2018-07-31T07:15:38.282Z,39.78
2018-07-31T07:16:38.213Z,39.90
2018-07-31T07:17:38.174Z,40.47
2018-07-31T07:18:38.134Z,40.68
2018-07-31T07:19:38.094Z,39.80
2018-07-31T07:20:38.088Z,40.00
2018-07-31T07:21:38.020Z,40.09
2018-07-31T07:22:37.982Z,39.80
2018-07-31T07:23:37.938Z,39.51
2018-07-31T07:24:37.905Z,39.62
2018-07-31T07:25:37.895Z,39.62
2018-07-31T07:26:37.820Z,39.82
2018-07-31T07:27:37.782Z,40.21
2018-07-31T07:28:37.779Z,39.92
2018-07-31T07:29:37.736Z,40.01
2018-07-31T07:30:37.664Z,39.24
2018-07-31T07:31:37.624Z,38.65
2018-07-31T07:32:37.587Z,39.26
2018-07-31T07:33:37.640Z,38.95
2018-07-31T07:34:37.572Z,38.67
2018-07-31T07:35:37.472Z,39.16
2018-07-31T07:36:37.432Z,38.96
2018-07-31T07:37:37.392Z,38.38
2018-07-31T07:38:37.393Z,37.89
2018-07-31T07:39:37.314Z,38.48
2018-07-31T07:40:37.279Z,38.38
2018-07-31T07:41:37.237Z,38.48
2018-07-31T07:42:37.200Z,38.49
2018-07-31T07:43:37.191Z,39.47
2018-07-31T07:44:37.119Z,38.89
2018-07-31T07:45:37.083Z,38.40
2018-07-31T07:46:37.046Z,38.40
2018-07-31T07:47:37.006Z,38.69
2018-07-31T07:48:37.016Z,38.10
2018-07-31T07:49:36.999Z,37.81
2018-07-31T07:50:36.892Z,38.40
2018-07-31T07:51:36.854Z,38.69
2018-07-31T07:52:36.812Z,38.90
2018-07-31T07:53:36.805Z,39.29
2018-07-31T07:54:36.778Z,37.93
2018-07-31T07:55:36.701Z,37.33
2018-07-31T07:56:36.659Z,37.25
2018-07-31T07:57:36.619Z,37.45
2018-07-31T07:58:36.582Z,37.23
2018-07-31T07:59:36.577Z,37.45
2018-07-31T08:00:36.541Z,37.15
2018-07-31T08:01:36.469Z,36.86
2018-07-31T08:02:36.433Z,37.05
2018-07-31T08:03:36.394Z,37.05
2018-07-31T08:04:36.387Z,37.35
2018-07-31T08:05:36.316Z,36.76
2018-07-31T08:06:36.279Z,37.15
2018-07-31T08:07:36.239Z,37.15
2018-07-31T08:08:36.200Z,37.46
2018-07-31T08:09:36.197Z,36.98
2018-07-31T08:10:36.127Z,36.47
2018-07-31T08:11:36.087Z,37.07
2018-07-31T08:12:36.047Z,37.05
2018-07-31T08:13:36.012Z,36.86
2018-07-31T08:14:36.011Z,36.76
2018-07-31T08:15:35.935Z,37.15
2018-07-31T08:16:35.897Z,37.07
2018-07-31T08:17:35.863Z,37.07
2018-07-31T08:18:35.820Z,37.17
2018-07-31T08:19:35.816Z,37.48
2018-07-31T08:20:35.745Z,37.29
2018-07-31T08:21:35.706Z,37.29
2018-07-31T08:22:35.737Z,36.21
2018-07-31T08:23:35.629Z,36.31
2018-07-31T08:24:35.593Z,35.82
2018-07-31T08:25:35.603Z,36.23
2018-07-31T08:26:35.519Z,36.52
2018-07-31T08:27:35.477Z,35.95
2018-07-31T08:28:35.441Z,36.05
2018-07-31T08:29:35.401Z,36.15
2018-07-31T08:30:35.415Z,36.24
2018-07-31T08:31:35.325Z,35.38
2018-07-31T08:32:35.288Z,35.77
2018-07-31T08:33:35.268Z,35.97
2018-07-31T08:34:35.226Z,34.89
2018-07-31T08:35:35.212Z,34.99
2018-07-31T08:36:35.140Z,35.09
2018-07-31T08:37:35.101Z,35.19
2018-07-31T08:38:35.105Z,34.80
2018-07-31T08:39:35.027Z,34.99
2018-07-31T08:40:34.989Z,34.70
2018-07-31T08:41:34.952Z,34.89
2018-07-31T08:42:34.913Z,34.72
2018-07-31T08:43:34.952Z,34.91
2018-07-31T08:44:34.841Z,34.91
2018-07-31T08:45:34.802Z,34.81
2018-07-31T08:46:34.764Z,35.01
2018-07-31T08:47:34.725Z,35.09
2018-07-31T08:48:34.718Z,35.21
2018-07-31T08:49:34.673Z,35.32
2018-07-31T08:50:34.617Z,35.24
2018-07-31T08:51:34.577Z,34.84
2018-07-31T08:52:34.540Z,34.96
2018-07-31T08:53:34.541Z,34.28
2018-07-31T08:54:34.467Z,34.08
2018-07-31T08:55:34.449Z,34.38
2018-07-31T08:56:34.424Z,33.89
2018-07-31T08:57:34.356Z,34.38
2018-07-31T08:58:34.319Z,34.38
2018-07-31T08:59:34.282Z,34.38
2018-07-31T09:00:34.245Z,34.26
2018-07-31T09:01:34.250Z,34.84
2018-07-31T09:02:34.173Z,34.08
2018-07-31T09:03:34.133Z,34.30
2018-07-31T09:04:34.097Z,34.31
2018-07-31T09:05:34.063Z,33.14
2018-07-31T09:06:34.065Z,33.14
2018-07-31T09:07:33.988Z,33.22
2018-07-31T09:08:34.016Z,33.92
2018-07-31T09:09:33.913Z,33.82
2018-07-31T09:10:33.878Z,34.51
2018-07-31T09:11:33.893Z,33.44
2018-07-31T09:12:33.805Z,33.44
2018-07-31T09:13:33.772Z,32.18
2018-07-31T09:14:33.736Z,32.28
2018-07-31T09:15:33.694Z,31.90
2018-07-31T09:16:33.710Z,31.90
2018-07-31T09:17:33.653Z,31.82
2018-07-31T09:18:33.587Z,31.53
2018-07-31T09:19:33.554Z,31.63
2018-07-31T09:20:33.517Z,30.84
2018-07-31T09:21:33.515Z,30.55
2018-07-31T09:22:33.459Z,30.55
2018-07-31T09:23:33.437Z,31.04
2018-07-31T09:24:33.440Z,31.60
2018-07-31T09:25:33.336Z,32.10
2018-07-31T09:26:33.299Z,31.92
2018-07-31T09:27:33.263Z,31.82
2018-07-31T09:28:33.263Z,30.66
2018-07-31T09:29:33.194Z,30.94
2018-07-31T09:30:33.217Z,31.60
2018-07-31T09:31:33.121Z,31.38
2018-07-31T09:32:33.119Z,32.15
2018-07-31T09:33:33.050Z,33.14
2018-07-31T09:34:33.014Z,32.14
2018-07-31T09:35:32.979Z,33.12
2018-07-31T09:36:32.948Z,32.95
2018-07-31T09:37:32.950Z,31.79
2018-07-31T09:38:32.871Z,31.99
2018-07-31T09:39:32.833Z,30.53
2018-07-31T09:40:32.800Z,30.53
2018-07-31T09:41:32.767Z,31.33
2018-07-31T09:42:32.767Z,31.23
2018-07-31T09:43:32.692Z,30.35
2018-07-31T09:44:32.663Z,30.05
2018-07-31T09:45:32.654Z,30.65
2018-07-31T09:46:32.592Z,30.66
2018-07-31T09:47:32.552Z,30.28
2018-07-31T09:48:32.580Z,29.07
2018-07-31T09:49:32.488Z,30.24
2018-07-31T09:50:32.453Z,30.24
2018-07-31T09:51:32.409Z,30.42
2018-07-31T09:52:32.373Z,31.19
2018-07-31T09:53:32.377Z,31.96
2018-07-31T09:54:32.304Z,32.27
2018-07-31T09:55:32.270Z,29.34
2018-07-31T09:56:32.232Z,29.66
2018-07-31T09:57:32.196Z,30.05
2018-07-31T09:58:32.206Z,30.55
2018-07-31T09:59:32.183Z,29.96
2018-07-31T10:00:32.090Z,30.04
2018-07-31T10:01:32.054Z,29.53
2018-07-31T10:02:32.022Z,30.42
2018-07-31T10:03:32.017Z,29.62
2018-07-31T10:04:31.981Z,29.90
2018-07-31T10:05:31.918Z,30.10
2018-07-31T10:06:31.892Z,30.22
2018-07-31T10:07:31.846Z,30.14
2018-07-31T10:08:31.812Z,29.07
2018-07-31T10:09:31.804Z,28.68
2018-07-31T10:10:31.740Z,28.88
2018-07-31T10:11:31.703Z,28.97
2018-07-31T10:12:31.668Z,29.37
2018-07-31T10:13:31.639Z,29.06
2018-07-31T10:14:31.629Z,29.57
2018-07-31T10:15:31.564Z,28.88
2018-07-31T10:16:31.528Z,29.58
2018-07-31T10:17:31.532Z,29.20
2018-07-31T10:18:31.458Z,28.42
2018-07-31T10:19:31.456Z,27.25
2018-07-31T10:20:31.392Z,26.75
2018-07-31T10:21:31.352Z,27.15
2018-07-31T10:22:31.317Z,26.98
2018-07-31T10:23:31.315Z,26.30
2018-07-31T10:24:31.268Z,26.01
2018-07-31T10:25:31.213Z,24.53
2018-07-31T10:26:31.185Z,24.13
2018-07-31T10:27:31.142Z,24.63
2018-07-31T10:28:31.142Z,24.33
2018-07-31T10:29:31.146Z,25.52
2018-07-31T10:30:31.184Z,26.02
2018-07-31T10:31:31.005Z,26.62
2018-07-31T10:32:30.970Z,25.35
2018-07-31T10:33:30.938Z,23.58
2018-07-31T10:34:30.935Z,23.48
2018-07-31T10:35:30.866Z,23.59
2018-07-31T10:36:30.867Z,23.69
2018-07-31T10:37:30.825Z,22.81
2018-07-31T10:38:30.802Z,22.91
2018-07-31T10:39:30.730Z,22.61
2018-07-31T10:40:30.698Z,22.70
2018-07-31T10:41:30.664Z,22.58
2018-07-31T10:42:30.681Z,23.36
2018-07-31T10:43:30.595Z,23.65
2018-07-31T10:44:30.565Z,23.65
2018-07-31T10:45:30.529Z,24.16
2018-07-31T10:46:30.492Z,23.36
2018-07-31T10:47:30.492Z,23.64
2018-07-31T10:48:30.429Z,23.83
2018-07-31T10:49:30.396Z,24.22
2018-07-31T10:50:30.442Z,24.01
2018-07-31T10:51:30.323Z,24.11
2018-07-31T10:52:30.294Z,24.29
2018-07-31T10:53:30.259Z,24.88
2018-07-31T10:54:30.256Z,24.10
2018-07-31T10:55:30.199Z,24.87
2018-07-31T10:56:30.186Z,25.18
2018-07-31T10:57:30.123Z,25.38
2018-07-31T10:58:30.182Z,25.29
2018-07-31T10:59:30.057Z,24.99
2018-07-31T11:00:30.020Z,25.12
2018-07-31T11:01:30.018Z,25.43
2018-07-31T11:02:29.958Z,23.55
2018-07-31T11:03:29.959Z,23.94
2018-07-31T11:04:29.903Z,23.85
2018-07-31T11:05:29.851Z,23.66
2018-07-31T11:06:29.885Z,23.96
2018-07-31T11:07:29.787Z,23.47
2018-07-31T11:08:29.794Z,23.46
2018-07-31T11:09:29.715Z,23.84
2018-07-31T11:10:29.712Z,23.35
2018-07-31T11:11:29.648Z,24.01
2018-07-31T11:12:29.616Z,24.19
2018-07-31T11:13:29.611Z,25.17
2018-07-31T11:14:29.553Z,25.96
2018-07-31T11:15:29.514Z,25.29
2018-07-31T11:16:29.480Z,25.10
2018-07-31T11:17:29.446Z,23.94
2018-07-31T11:18:29.445Z,24.24
2018-07-31T11:19:29.378Z,23.65
2018-07-31T11:20:29.344Z,24.23
2018-07-31T11:21:29.311Z,24.13
2018-07-31T11:22:29.279Z,23.84
2018-07-31T11:23:29.282Z,24.04
2018-07-31T11:24:29.208Z,24.64
2018-07-31T11:25:29.176Z,24.16
2018-07-31T11:26:29.142Z,24.24
2018-07-31T11:27:29.152Z,24.06
2018-07-31T11:28:29.107Z,23.96
2018-07-31T11:29:29.049Z,23.57
2018-07-31T11:30:29.009Z,23.48
2018-07-31T11:31:28.973Z,23.19
2018-07-31T11:32:28.941Z,22.67
2018-07-31T11:33:28.941Z,23.46
2018-07-31T11:34:28.873Z,23.76
2018-07-31T11:35:28.870Z,23.47
2018-07-31T11:36:28.807Z,23.38
2018-07-31T11:37:28.774Z,23.49
2018-07-31T11:38:28.750Z,22.60
2018-07-31T11:39:28.706Z,22.80
2018-07-31T11:40:28.716Z,24.19
2018-07-31T11:41:28.641Z,24.32
2018-07-31T11:42:28.606Z,23.52
2018-07-31T11:43:28.570Z,24.02
2018-07-31T11:44:28.540Z,22.82
2018-07-31T11:45:28.557Z,22.72
2018-07-31T11:46:28.472Z,22.45
2018-07-31T11:47:28.438Z,21.94
2018-07-31T11:48:28.407Z,22.04
2018-07-31T11:49:28.378Z,22.45
2018-07-31T11:50:28.375Z,22.04
2018-07-31T11:51:28.307Z,22.23
2018-07-31T11:52:28.273Z,23.72
2018-07-31T11:53:28.241Z,22.84
2018-07-31T11:54:28.208Z,21.96
2018-07-31T11:55:28.213Z,21.67
2018-07-31T11:56:28.143Z,22.05
2018-07-31T11:57:28.110Z,21.66
2018-07-31T11:58:28.077Z,21.84
2018-07-31T11:59:28.045Z,22.23
2018-07-31T12:00:28.044Z,22.30
2018-07-31T12:01:27.977Z,22.78
2018-07-31T12:02:27.952Z,22.78
2018-07-31T12:03:27.914Z,23.10
2018-07-31T12:04:27.879Z,23.59
2018-07-31T12:05:27.881Z,22.69
2018-07-31T12:06:27.816Z,22.38
2018-07-31T12:07:27.779Z,23.65
2018-07-31T12:08:27.745Z,23.54
2018-07-31T12:09:27.714Z,24.23
2018-07-31T12:10:27.715Z,25.10
2018-07-31T12:11:27.712Z,25.12
2018-07-31T12:12:27.614Z,25.61
2018-07-31T12:13:27.580Z,26.02
2018-07-31T12:14:27.567Z,26.02
2018-07-31T12:15:27.546Z,26.02
2018-07-31T12:16:27.481Z,25.13
2018-07-31T12:17:27.450Z,24.73
2018-07-31T12:18:27.447Z,25.61
2018-07-31T12:19:27.385Z,24.92
2018-07-31T12:20:27.347Z,25.31
2018-07-31T12:21:27.316Z,26.70
2018-07-31T12:22:27.281Z,26.81
2018-07-31T12:23:27.284Z,26.53
2018-07-31T12:24:27.215Z,25.54
2018-07-31T12:25:27.181Z,23.49
2018-07-31T12:26:27.148Z,23.49
2018-07-31T12:27:27.116Z,23.50
2018-07-31T12:28:27.113Z,22.92
2018-07-31T12:29:27.051Z,23.72
2018-07-31T12:30:27.014Z,23.43
2018-07-31T12:31:26.978Z,23.14
2018-07-31T12:32:26.947Z,22.95
2018-07-31T12:33:26.960Z,22.75
2018-07-31T12:34:26.881Z,22.47
2018-07-31T12:35:26.904Z,22.07
2018-07-31T12:36:26.816Z,22.07
2018-07-31T12:37:26.781Z,22.48
2018-07-31T12:38:26.797Z,21.97
2018-07-31T12:39:26.721Z,22.26
2018-07-31T12:40:26.687Z,22.45
2018-07-31T12:41:26.701Z,22.25
2018-07-31T12:42:26.618Z,22.04
2018-07-31T12:43:26.638Z,22.24
2018-07-31T12:44:26.609Z,23.73
2018-07-31T12:45:26.519Z,23.73
2018-07-31T12:46:26.487Z,22.75
2018-07-31T12:47:26.455Z,22.96
2018-07-31T12:48:26.463Z,22.86
2018-07-31T12:49:26.392Z,23.57
2018-07-31T12:50:26.359Z,22.19
2018-07-31T12:51:26.325Z,21.69
2018-07-31T12:52:26.293Z,21.56